sensor_id;sensor_type;location;lat;lon;timestamp;temperature;humidity
55634;DHT22;41504;53.162;6.788;2023-04-01T00:00:58;10.70;96.00
55634;DHT22;41504;53.162;6.788;2023-04-01T00:03:25;10.70;96.00
55634;DHT22;41504;53.162;6.788;2023-04-01T00:05:53;10.70;96.00
55634;DHT22;41504;53.162;6.788;2023-04-01T00:08:19;10.70;96.00
55634;DHT22;41504;53.162;6.788;2023-04-01T00:10:44;10.70;96.10
55634;DHT22;41504;53.162;6.788;2023-04-01T00:13:11;10.70;96.00
55634;DHT22;41504;53.162;6.788;2023-04-01T00:15:37;10.70;96.10
55634;DHT22;41504;53.162;6.788;2023-04-01T00:18:03;10.70;96.10
55634;DHT22;41504;53.162;6.788;2023-04-01T00:20:29;10.70;96.00
55634;DHT22;41504;53.162;6.788;2023-04-01T00:22:56;10.70;96.00
55634;DHT22;41504;53.162;6.788;2023-04-01T00:25:25;10.70;96.10
55634;DHT22;41504;53.162;6.788;2023-04-01T00:27:50;10.70;96.10
55634;DHT22;41504;53.162;6.788;2023-04-01T00:30:16;10.70;96.10
55634;DHT22;41504;53.162;6.788;2023-04-01T00:32:42;10.70;96.10
55634;DHT22;41504;53.162;6.788;2023-04-01T00:35:08;10.70;96.10
55634;DHT22;41504;53.162;6.788;2023-04-01T00:37:37;10.60;96.10
55634;DHT22;41504;53.162;6.788;2023-04-01T00:40:07;10.70;96.10
55634;DHT22;41504;53.162;6.788;2023-04-01T00:42:33;10.70;96.10
55634;DHT22;41504;53.162;6.788;2023-04-01T00:45:26;10.70;96.10
55634;DHT22;41504;53.162;6.788;2023-04-01T00:47:53;10.70;96.10
55634;DHT22;41504;53.162;6.788;2023-04-01T00:50:21;10.70;96.10
55634;DHT22;41504;53.162;6.788;2023-04-01T00:52:47;10.70;96.10
55634;DHT22;41504;53.162;6.788;2023-04-01T00:55:14;10.70;96.10
55634;DHT22;41504;53.162;6.788;2023-04-01T00:57:42;10.70;96.10
55634;DHT22;41504;53.162;6.788;2023-04-01T01:00:11;10.70;96.10
55634;DHT22;41504;53.162;6.788;2023-04-01T01:02:41;10.70;96.10
55634;DHT22;41504;53.162;6.788;2023-04-01T01:05:08;10.70;96.10
55634;DHT22;41504;53.162;6.788;2023-04-01T01:15:45;10.60;96.10
55634;DHT22;41504;53.162;6.788;2023-04-01T01:26:46;10.60;96.20
55634;DHT22;41504;53.162;6.788;2023-04-01T01:29:25;10.60;96.20
55634;DHT22;41504;53.162;6.788;2023-04-01T01:34:40;10.60;96.20
55634;DHT22;41504;53.162;6.788;2023-04-01T01:37:14;10.70;96.20
55634;DHT22;41504;53.162;6.788;2023-04-01T01:39:42;10.60;96.20
55634;DHT22;41504;53.162;6.788;2023-04-01T01:42:13;10.60;96.30
55634;DHT22;41504;53.162;6.788;2023-04-01T01:44:43;10.60;96.30
55634;DHT22;41504;53.162;6.788;2023-04-01T01:47:10;10.60;96.30
55634;DHT22;41504;53.162;6.788;2023-04-01T01:49:36;10.60;96.30
55634;DHT22;41504;53.162;6.788;2023-04-01T01:52:03;10.60;96.30
55634;DHT22;41504;53.162;6.788;2023-04-01T01:54:29;10.60;96.30
55634;DHT22;41504;53.162;6.788;2023-04-01T01:57:07;10.60;96.30
55634;DHT22;41504;53.162;6.788;2023-04-01T01:59:35;10.60;96.20
55634;DHT22;41504;53.162;6.788;2023-04-01T02:02:03;10.60;96.30
55634;DHT22;41504;53.162;6.788;2023-04-01T02:04:35;10.60;96.30
55634;DHT22;41504;53.162;6.788;2023-04-01T02:07:16;10.60;96.30
55634;DHT22;41504;53.162;6.788;2023-04-01T02:09:44;10.60;96.30
55634;DHT22;41504;53.162;6.788;2023-04-01T02:12:12;10.60;96.30
55634;DHT22;41504;53.162;6.788;2023-04-01T02:17:22;10.60;96.30
55634;DHT22;41504;53.162;6.788;2023-04-01T02:19:57;10.60;96.30
55634;DHT22;41504;53.162;6.788;2023-04-01T02:22:28;10.60;96.30
55634;DHT22;41504;53.162;6.788;2023-04-01T02:24:58;10.60;96.30
55634;DHT22;41504;53.162;6.788;2023-04-01T02:27:25;10.60;96.30
55634;DHT22;41504;53.162;6.788;2023-04-01T02:29:52;10.50;96.30
55634;DHT22;41504;53.162;6.788;2023-04-01T02:32:19;10.50;96.30
55634;DHT22;41504;53.162;6.788;2023-04-01T02:34:46;10.50;96.30
55634;DHT22;41504;53.162;6.788;2023-04-01T02:37:13;10.50;96.30
55634;DHT22;41504;53.162;6.788;2023-04-01T02:39:40;10.60;96.30
55634;DHT22;41504;53.162;6.788;2023-04-01T02:42:06;10.50;96.20
55634;DHT22;41504;53.162;6.788;2023-04-01T02:44:31;10.50;96.30
55634;DHT22;41504;53.162;6.788;2023-04-01T02:46:57;10.50;96.30
55634;DHT22;41504;53.162;6.788;2023-04-01T02:49:23;10.50;96.30
55634;DHT22;41504;53.162;6.788;2023-04-01T02:51:48;10.60;96.30
55634;DHT22;41504;53.162;6.788;2023-04-01T02:54:14;10.50;96.30
55634;DHT22;41504;53.162;6.788;2023-04-01T02:56:40;10.50;96.30
55634;DHT22;41504;53.162;6.788;2023-04-01T02:59:06;10.50;96.30
55634;DHT22;41504;53.162;6.788;2023-04-01T03:01:31;10.50;96.30
55634;DHT22;41504;53.162;6.788;2023-04-01T03:03:57;10.50;96.30
55634;DHT22;41504;53.162;6.788;2023-04-01T03:06:23;10.50;96.30
55634;DHT22;41504;53.162;6.788;2023-04-01T03:08:48;10.50;96.30
55634;DHT22;41504;53.162;6.788;2023-04-01T03:11:14;10.50;96.30
55634;DHT22;41504;53.162;6.788;2023-04-01T03:13:40;10.50;96.30
55634;DHT22;41504;53.162;6.788;2023-04-01T03:16:06;10.50;96.30
55634;DHT22;41504;53.162;6.788;2023-04-01T03:18:32;10.60;96.30
55634;DHT22;41504;53.162;6.788;2023-04-01T03:20:57;10.50;96.50
55634;DHT22;41504;53.162;6.788;2023-04-01T03:23:37;10.50;96.30
55634;DHT22;41504;53.162;6.788;2023-04-01T03:26:02;10.50;96.30
55634;DHT22;41504;53.162;6.788;2023-04-01T03:28:28;10.50;96.30
55634;DHT22;41504;53.162;6.788;2023-04-01T03:30:53;10.60;96.30
55634;DHT22;41504;53.162;6.788;2023-04-01T03:33:19;10.50;96.30
55634;DHT22;41504;53.162;6.788;2023-04-01T03:35:45;10.50;96.30
55634;DHT22;41504;53.162;6.788;2023-04-01T03:38:11;10.50;96.30
55634;DHT22;41504;53.162;6.788;2023-04-01T03:40:36;10.50;96.30
55634;DHT22;41504;53.162;6.788;2023-04-01T03:43:03;10.50;96.30
55634;DHT22;41504;53.162;6.788;2023-04-01T03:45:33;10.50;96.30
55634;DHT22;41504;53.162;6.788;2023-04-01T03:47:59;10.60;96.40
55634;DHT22;41504;53.162;6.788;2023-04-01T03:50:25;10.50;96.30
55634;DHT22;41504;53.162;6.788;2023-04-01T03:52:51;10.50;96.30
55634;DHT22;41504;53.162;6.788;2023-04-01T03:55:17;10.40;96.30
55634;DHT22;41504;53.162;6.788;2023-04-01T03:57:43;10.50;96.40
55634;DHT22;41504;53.162;6.788;2023-04-01T04:00:10;10.50;96.40
55634;DHT22;41504;53.162;6.788;2023-04-01T04:02:36;10.50;96.40
55634;DHT22;41504;53.162;6.788;2023-04-01T04:05:02;10.50;96.40
55634;DHT22;41504;53.162;6.788;2023-04-01T04:07:27;10.50;96.60
55634;DHT22;41504;53.162;6.788;2023-04-01T04:09:53;10.50;96.40
55634;DHT22;41504;53.162;6.788;2023-04-01T04:12:19;10.50;96.40
55634;DHT22;41504;53.162;6.788;2023-04-01T04:14:45;10.50;96.40
55634;DHT22;41504;53.162;6.788;2023-04-01T04:17:11;10.50;96.40
55634;DHT22;41504;53.162;6.788;2023-04-01T04:19:42;10.50;96.40
55634;DHT22;41504;53.162;6.788;2023-04-01T04:22:07;10.50;96.40
55634;DHT22;41504;53.162;6.788;2023-04-01T04:24:36;10.50;96.40
55634;DHT22;41504;53.162;6.788;2023-04-01T04:27:04;10.50;96.40
55634;DHT22;41504;53.162;6.788;2023-04-01T04:29:29;10.50;96.40
55634;DHT22;41504;53.162;6.788;2023-04-01T04:31:55;10.50;96.40
55634;DHT22;41504;53.162;6.788;2023-04-01T04:34:21;10.50;96.40
55634;DHT22;41504;53.162;6.788;2023-04-01T04:36:48;10.50;96.40
55634;DHT22;41504;53.162;6.788;2023-04-01T04:39:14;10.50;96.40
55634;DHT22;41504;53.162;6.788;2023-04-01T04:41:41;10.50;96.40
55634;DHT22;41504;53.162;6.788;2023-04-01T04:44:07;10.50;96.40
55634;DHT22;41504;53.162;6.788;2023-04-01T04:46:33;10.50;96.70
55634;DHT22;41504;53.162;6.788;2023-04-01T04:48:59;10.50;96.50
55634;DHT22;41504;53.162;6.788;2023-04-01T04:51:25;10.50;96.50
55634;DHT22;41504;53.162;6.788;2023-04-01T04:53:51;10.50;96.50
55634;DHT22;41504;53.162;6.788;2023-04-01T04:56:21;10.40;96.50
55634;DHT22;41504;53.162;6.788;2023-04-01T04:58:50;10.50;96.50
55634;DHT22;41504;53.162;6.788;2023-04-01T05:01:16;10.50;96.60
55634;DHT22;41504;53.162;6.788;2023-04-01T05:03:43;10.50;96.50
55634;DHT22;41504;53.162;6.788;2023-04-01T05:06:10;10.40;96.50
55634;DHT22;41504;53.162;6.788;2023-04-01T05:08:37;10.40;96.50
55634;DHT22;41504;53.162;6.788;2023-04-01T05:11:06;10.40;96.50
55634;DHT22;41504;53.162;6.788;2023-04-01T05:13:31;10.50;96.60
55634;DHT22;41504;53.162;6.788;2023-04-01T05:15:57;10.40;96.60
55634;DHT22;41504;53.162;6.788;2023-04-01T05:18:23;10.40;96.60
55634;DHT22;41504;53.162;6.788;2023-04-01T05:20:50;10.40;96.60
55634;DHT22;41504;53.162;6.788;2023-04-01T05:23:17;10.40;96.60
55634;DHT22;41504;53.162;6.788;2023-04-01T05:25:43;10.40;96.60
55634;DHT22;41504;53.162;6.788;2023-04-01T05:28:10;10.40;96.60
55634;DHT22;41504;53.162;6.788;2023-04-01T05:30:36;10.40;96.60
55634;DHT22;41504;53.162;6.788;2023-04-01T05:33:02;10.50;96.60
55634;DHT22;41504;53.162;6.788;2023-04-01T05:35:28;10.50;96.60
55634;DHT22;41504;53.162;6.788;2023-04-01T05:37:54;10.50;96.60
55634;DHT22;41504;53.162;6.788;2023-04-01T05:40:20;10.50;96.60
55634;DHT22;41504;53.162;6.788;2023-04-01T05:42:46;10.40;96.60
55634;DHT22;41504;53.162;6.788;2023-04-01T05:45:11;10.50;96.60
55634;DHT22;41504;53.162;6.788;2023-04-01T05:47:37;10.50;96.60
55634;DHT22;41504;53.162;6.788;2023-04-01T05:50:03;10.50;96.60
55634;DHT22;41504;53.162;6.788;2023-04-01T05:52:28;10.50;96.60
55634;DHT22;41504;53.162;6.788;2023-04-01T05:54:54;10.50;96.60
55634;DHT22;41504;53.162;6.788;2023-04-01T05:57:20;10.50;96.60
55634;DHT22;41504;53.162;6.788;2023-04-01T05:59:46;10.50;96.60
55634;DHT22;41504;53.162;6.788;2023-04-01T06:02:12;10.50;96.60
55634;DHT22;41504;53.162;6.788;2023-04-01T06:04:39;10.50;96.60
55634;DHT22;41504;53.162;6.788;2023-04-01T06:07:11;10.50;96.60
55634;DHT22;41504;53.162;6.788;2023-04-01T06:09:37;10.50;96.60
55634;DHT22;41504;53.162;6.788;2023-04-01T06:33:31;10.50;96.50
55634;DHT22;41504;53.162;6.788;2023-04-01T06:39:15;10.50;96.50
55634;DHT22;41504;53.162;6.788;2023-04-01T06:58:13;10.50;96.60
55634;DHT22;41504;53.162;6.788;2023-04-01T07:00:47;10.50;96.60
55634;DHT22;41504;53.162;6.788;2023-04-01T07:03:33;10.50;96.60
55634;DHT22;41504;53.162;6.788;2023-04-01T07:06:09;10.50;96.60
55634;DHT22;41504;53.162;6.788;2023-04-01T07:08:40;10.50;96.60
55634;DHT22;41504;53.162;6.788;2023-04-01T07:11:11;10.50;96.60
55634;DHT22;41504;53.162;6.788;2023-04-01T07:14:03;10.60;96.60
55634;DHT22;41504;53.162;6.788;2023-04-01T07:22:03;10.60;96.60
55634;DHT22;41504;53.162;6.788;2023-04-01T07:24:36;10.60;96.60
55634;DHT22;41504;53.162;6.788;2023-04-01T07:27:03;10.60;96.60
55634;DHT22;41504;53.162;6.788;2023-04-01T07:29:33;10.60;96.60
55634;DHT22;41504;53.162;6.788;2023-04-01T07:35:09;10.60;96.60
55634;DHT22;41504;53.162;6.788;2023-04-01T07:51:17;10.80;96.50
55634;DHT22;41504;53.162;6.788;2023-04-01T07:53:48;10.80;96.50
55634;DHT22;41504;53.162;6.788;2023-04-01T07:56:28;10.80;96.40
55634;DHT22;41504;53.162;6.788;2023-04-01T07:59:24;10.90;96.50
55634;DHT22;41504;53.162;6.788;2023-04-01T08:02:06;10.90;96.40
55634;DHT22;41504;53.162;6.788;2023-04-01T08:05:04;11.00;96.40
55634;DHT22;41504;53.162;6.788;2023-04-01T08:10:40;11.00;96.30
55634;DHT22;41504;53.162;6.788;2023-04-01T08:13:28;11.00;96.30
55634;DHT22;41504;53.162;6.788;2023-04-01T08:16:20;11.00;96.30
55634;DHT22;41504;53.162;6.788;2023-04-01T08:19:01;11.00;96.20
55634;DHT22;41504;53.162;6.788;2023-04-01T08:21:35;11.10;96.20
55634;DHT22;41504;53.162;6.788;2023-04-01T08:24:43;11.00;96.20
55634;DHT22;41504;53.162;6.788;2023-04-01T08:32:48;11.10;96.20
55634;DHT22;41504;53.162;6.788;2023-04-01T08:35:36;11.10;96.20
55634;DHT22;41504;53.162;6.788;2023-04-01T08:38:14;11.20;96.10
55634;DHT22;41504;53.162;6.788;2023-04-01T08:41:12;11.20;96.10
55634;DHT22;41504;53.162;6.788;2023-04-01T09:01:11;11.30;95.80
55634;DHT22;41504;53.162;6.788;2023-04-01T09:23:27;11.30;95.70
55634;DHT22;41504;53.162;6.788;2023-04-01T09:41:31;11.00;95.70
55634;DHT22;41504;53.162;6.788;2023-04-01T09:49:54;10.90;95.60
55634;DHT22;41504;53.162;6.788;2023-04-01T09:52:26;10.90;95.50
55634;DHT22;41504;53.162;6.788;2023-04-01T09:57:39;10.90;95.50
55634;DHT22;41504;53.162;6.788;2023-04-01T10:17:19;10.70;95.30
55634;DHT22;41504;53.162;6.788;2023-04-01T10:20:35;10.70;95.30
55634;DHT22;41504;53.162;6.788;2023-04-01T10:48:18;10.80;94.50
55634;DHT22;41504;53.162;6.788;2023-04-01T10:54:14;10.70;94.50
55634;DHT22;41504;53.162;6.788;2023-04-01T10:56:56;10.70;94.60
55634;DHT22;41504;53.162;6.788;2023-04-01T11:14:02;10.50;94.40
55634;DHT22;41504;53.162;6.788;2023-04-01T11:16:47;10.50;94.40
55634;DHT22;41504;53.162;6.788;2023-04-01T11:28:06;10.70;94.30
55634;DHT22;41504;53.162;6.788;2023-04-01T11:30:43;10.80;94.20
55634;DHT22;41504;53.162;6.788;2023-04-01T11:33:23;10.90;94.00
55634;DHT22;41504;53.162;6.788;2023-04-01T11:38:39;11.10;93.80
55634;DHT22;41504;53.162;6.788;2023-04-01T11:44:26;11.10;93.50
55634;DHT22;41504;53.162;6.788;2023-04-01T11:50:13;11.10;93.40
55634;DHT22;41504;53.162;6.788;2023-04-01T12:10:41;11.10;92.80
55634;DHT22;41504;53.162;6.788;2023-04-01T12:45:51;10.80;92.80
55634;DHT22;41504;53.162;6.788;2023-04-01T12:48:59;10.80;92.80
55634;DHT22;41504;53.162;6.788;2023-04-01T12:51:45;10.80;92.90
55634;DHT22;41504;53.162;6.788;2023-04-01T13:03:25;10.70;93.00
55634;DHT22;41504;53.162;6.788;2023-04-01T13:23:01;10.70;92.60
55634;DHT22;41504;53.162;6.788;2023-04-01T13:28:20;10.70;92.80
55634;DHT22;41504;53.162;6.788;2023-04-01T13:44:43;10.60;92.50
55634;DHT22;41504;53.162;6.788;2023-04-01T14:01:23;10.50;92.60
55634;DHT22;41504;53.162;6.788;2023-04-01T14:17:46;10.40;92.40
55634;DHT22;41504;53.162;6.788;2023-04-01T14:20:36;10.40;92.40
55634;DHT22;41504;53.162;6.788;2023-04-01T14:46:02;10.20;92.10
55634;DHT22;41504;53.162;6.788;2023-04-01T14:48:50;10.10;91.80
55634;DHT22;41504;53.162;6.788;2023-04-01T14:51:23;10.10;92.00
55634;DHT22;41504;53.162;6.788;2023-04-01T14:56:50;10.10;92.10
55634;DHT22;41504;53.162;6.788;2023-04-01T15:02:32;10.00;91.90
55634;DHT22;41504;53.162;6.788;2023-04-01T15:05:24;10.00;91.90
55634;DHT22;41504;53.162;6.788;2023-04-01T15:14:05;9.90;91.60
55634;DHT22;41504;53.162;6.788;2023-04-01T15:31:04;9.70;91.60
55634;DHT22;41504;53.162;6.788;2023-04-01T15:36:29;9.60;91.60
55634;DHT22;41504;53.162;6.788;2023-04-01T15:39:19;9.50;91.50
55634;DHT22;41504;53.162;6.788;2023-04-01T15:46:57;9.40;91.60
55634;DHT22;41504;53.162;6.788;2023-04-01T15:49:38;9.30;91.40
55634;DHT22;41504;53.162;6.788;2023-04-01T15:52:24;9.30;91.50
55634;DHT22;41504;53.162;6.788;2023-04-01T16:07:21;9.20;91.50
55634;DHT22;41504;53.162;6.788;2023-04-01T16:10:06;9.10;91.20
55634;DHT22;41504;53.162;6.788;2023-04-01T16:15:28;9.10;91.50
55634;DHT22;41504;53.162;6.788;2023-04-01T16:21:00;9.00;90.90
55634;DHT22;41504;53.162;6.788;2023-04-01T16:23:40;8.90;91.00
55634;DHT22;41504;53.162;6.788;2023-04-01T16:26:25;8.90;91.20
55634;DHT22;41504;53.162;6.788;2023-04-01T16:29:12;8.90;91.20
55634;DHT22;41504;53.162;6.788;2023-04-01T16:34:38;8.90;91.20
55634;DHT22;41504;53.162;6.788;2023-04-01T16:37:15;8.80;91.20
55634;DHT22;41504;53.162;6.788;2023-04-01T16:40:11;8.80;91.20
55634;DHT22;41504;53.162;6.788;2023-04-01T16:48:13;8.70;91.20
55634;DHT22;41504;53.162;6.788;2023-04-01T16:53:25;8.70;91.20
55634;DHT22;41504;53.162;6.788;2023-04-01T16:56:13;8.60;91.30
55634;DHT22;41504;53.162;6.788;2023-04-01T16:59:07;8.60;91.40
55634;DHT22;41504;53.162;6.788;2023-04-01T17:02:04;8.60;91.30
55634;DHT22;41504;53.162;6.788;2023-04-01T17:10:53;8.50;91.30
55634;DHT22;41504;53.162;6.788;2023-04-01T17:30:27;8.30;91.20
55634;DHT22;41504;53.162;6.788;2023-04-01T17:36:34;8.30;91.10
55634;DHT22;41504;53.162;6.788;2023-04-01T17:39:47;8.20;91.20
55634;DHT22;41504;53.162;6.788;2023-04-01T17:47:31;8.20;91.30
55634;DHT22;41504;53.162;6.788;2023-04-01T17:50:21;8.20;91.40
55634;DHT22;41504;53.162;6.788;2023-04-01T17:58:45;8.00;91.30
55634;DHT22;41504;53.162;6.788;2023-04-01T18:04:29;8.00;91.50
55634;DHT22;41504;53.162;6.788;2023-04-01T18:17:27;7.90;91.70
55634;DHT22;41504;53.162;6.788;2023-04-01T18:23:24;7.90;91.70
55634;DHT22;41504;53.162;6.788;2023-04-01T18:26:06;7.80;91.70
55634;DHT22;41504;53.162;6.788;2023-04-01T18:28:52;7.90;91.60
55634;DHT22;41504;53.162;6.788;2023-04-01T18:31:24;7.80;91.50
55634;DHT22;41504;53.162;6.788;2023-04-01T18:39:18;7.80;91.60
55634;DHT22;41504;53.162;6.788;2023-04-01T18:52:44;7.70;91.50
55634;DHT22;41504;53.162;6.788;2023-04-01T18:55:24;7.60;91.40
55634;DHT22;41504;53.162;6.788;2023-04-01T18:58:18;7.60;91.30
55634;DHT22;41504;53.162;6.788;2023-04-01T19:04:00;7.60;91.20
55634;DHT22;41504;53.162;6.788;2023-04-01T19:06:34;7.50;91.30
55634;DHT22;41504;53.162;6.788;2023-04-01T19:09:20;7.50;91.30
55634;DHT22;41504;53.162;6.788;2023-04-01T19:15:11;7.50;91.30
55634;DHT22;41504;53.162;6.788;2023-04-01T19:25:54;7.50;91.20
55634;DHT22;41504;53.162;6.788;2023-04-01T19:36:45;7.30;91.00
55634;DHT22;41504;53.162;6.788;2023-04-01T19:42:43;7.20;91.00
55634;DHT22;41504;53.162;6.788;2023-04-01T19:50:32;7.20;90.90
55634;DHT22;41504;53.162;6.788;2023-04-01T19:56:16;7.10;90.80
55634;DHT22;41504;53.162;6.788;2023-04-01T19:58:47;7.10;90.90
55634;DHT22;41504;53.162;6.788;2023-04-01T20:01:48;7.10;91.00
55634;DHT22;41504;53.162;6.788;2023-04-01T20:05:02;7.10;90.70
55634;DHT22;41504;53.162;6.788;2023-04-01T20:09:59;7.10;90.80
55634;DHT22;41504;53.162;6.788;2023-04-01T20:15:33;7.00;90.80
55634;DHT22;41504;53.162;6.788;2023-04-01T20:18:04;7.00;90.60
55634;DHT22;41504;53.162;6.788;2023-04-01T20:20:32;7.00;90.60
55634;DHT22;41504;53.162;6.788;2023-04-01T20:25:56;6.90;90.40
55634;DHT22;41504;53.162;6.788;2023-04-01T20:28:50;7.00;90.50
55634;DHT22;41504;53.162;6.788;2023-04-01T20:31:33;6.90;90.50
55634;DHT22;41504;53.162;6.788;2023-04-01T20:34:54;6.90;90.50
55634;DHT22;41504;53.162;6.788;2023-04-01T20:39:57;6.90;90.50
55634;DHT22;41504;53.162;6.788;2023-04-01T20:53:11;6.80;90.40
55634;DHT22;41504;53.162;6.788;2023-04-01T20:58:46;6.80;90.30
55634;DHT22;41504;53.162;6.788;2023-04-01T21:04:04;6.70;90.30
55634;DHT22;41504;53.162;6.788;2023-04-01T21:06:45;6.70;90.20
55634;DHT22;41504;53.162;6.788;2023-04-01T21:12:27;6.70;90.20
55634;DHT22;41504;53.162;6.788;2023-04-01T21:15:59;6.70;90.20
55634;DHT22;41504;53.162;6.788;2023-04-01T21:24:26;6.70;90.10
55634;DHT22;41504;53.162;6.788;2023-04-01T21:26:56;6.70;90.10
55634;DHT22;41504;53.162;6.788;2023-04-01T21:41:08;6.70;90.10
55634;DHT22;41504;53.162;6.788;2023-04-01T21:55:08;6.60;89.40
55634;DHT22;41504;53.162;6.788;2023-04-01T22:00:36;6.50;89.60
55634;DHT22;41504;53.162;6.788;2023-04-01T22:03:20;6.50;89.70
55634;DHT22;41504;53.162;6.788;2023-04-01T22:08:41;6.40;89.60
55634;DHT22;41504;53.162;6.788;2023-04-01T22:11:36;6.50;89.50
55634;DHT22;41504;53.162;6.788;2023-04-01T22:19:20;6.30;89.30
55634;DHT22;41504;53.162;6.788;2023-04-01T22:22:01;6.30;88.90
55634;DHT22;41504;53.162;6.788;2023-04-01T22:27:54;6.30;88.60
55634;DHT22;41504;53.162;6.788;2023-04-01T22:30:27;6.30;88.30
55634;DHT22;41504;53.162;6.788;2023-04-01T22:36:02;6.20;88.20
55634;DHT22;41504;53.162;6.788;2023-04-01T22:39:07;6.10;88.00
55634;DHT22;41504;53.162;6.788;2023-04-01T22:42:04;6.10;87.70
55634;DHT22;41504;53.162;6.788;2023-04-01T22:45:53;6.10;88.10
55634;DHT22;41504;53.162;6.788;2023-04-01T22:48:01;6.10;87.80
55634;DHT22;41504;53.162;6.788;2023-04-01T22:56:07;6.00;87.80
55634;DHT22;41504;53.162;6.788;2023-04-01T22:58:38;6.00;88.30
55634;DHT22;41504;53.162;6.788;2023-04-01T23:01:12;6.00;88.70
55634;DHT22;41504;53.162;6.788;2023-04-01T23:03:41;6.00;87.90
55634;DHT22;41504;53.162;6.788;2023-04-01T23:06:15;5.90;87.90
55634;DHT22;41504;53.162;6.788;2023-04-01T23:11:39;6.00;87.90
55634;DHT22;41504;53.162;6.788;2023-04-01T23:19:41;5.90;87.30
55634;DHT22;41504;53.162;6.788;2023-04-01T23:22:20;5.90;87.70
55634;DHT22;41504;53.162;6.788;2023-04-01T23:27:54;5.80;87.60
55634;DHT22;41504;53.162;6.788;2023-04-01T23:35:51;5.80;87.30
55634;DHT22;41504;53.162;6.788;2023-04-01T23:38:20;5.80;87.10
55634;DHT22;41504;53.162;6.788;2023-04-01T23:40:49;5.80;87.00
55634;DHT22;41504;53.162;6.788;2023-04-01T23:43:37;5.80;87.10
55634;DHT22;41504;53.162;6.788;2023-04-01T23:46:04;5.70;86.60
55634;DHT22;41504;53.162;6.788;2023-04-01T23:48:40;5.70;86.90
55634;DHT22;41504;53.162;6.788;2023-04-01T23:51:26;5.80;86.60
55634;DHT22;41504;53.162;6.788;2023-04-01T23:54:03;5.60;86.30
55634;DHT22;41504;53.162;6.788;2023-04-01T23:56:42;5.60;86.70
55634;DHT22;41504;53.162;6.788;2023-04-01T23:59:36;5.50;86.30
